Time;durP1;ratioP1;P1;durP2;ratioP2;P2;SDS_P1;SDS_P2;PMS_P1;PMS_P2;Temp;Humidity;BMP_temperature;BMP_pressure;BME280_temperature;BME280_humidity;BME280_pressure;Samples;Min_cycle;Max_cycle;Signal;HPM_P1;HPM_P2
2021/07/26 00:00:51;;;;;;;13.52;4.63;;;;;;;25.55;59.72;100791.59;5029469;28;20045;-65
2021/07/26 00:03:19;;;;;;;15.68;3.90;;;;;;;25.56;59.50;100788.84;5032610;28;20067;-65
2021/07/26 00:05:55;;;;;;;13.25;4.13;;;;;;;25.53;59.52;100794.41;5053392;28;20051;-65
2021/07/26 00:08:23;;;;;;;8.32;3.47;;;;;;;25.56;59.33;100790.66;5053294;28;20061;-65
2021/07/26 00:10:59;;;;;;;15.82;3.65;;;;;;;25.57;59.15;100792.41;5053096;28;20048;-65
2021/07/26 00:13:27;;;;;;;11.93;4.15;;;;;;;25.54;59.29;100793.44;5053167;28;20392;-65
2021/07/26 00:15:55;;;;;;;11.23;3.70;;;;;;;25.53;59.20;100801.63;5053090;28;20059;-65
2021/07/26 00:18:22;;;;;;;11.45;3.40;;;;;;;25.53;59.01;100804.34;5053645;28;20053;-65
2021/07/26 00:20:50;;;;;;;11.93;3.30;;;;;;;25.49;58.92;100808.09;5053760;28;20041;-65
2021/07/26 00:23:17;;;;;;;9.98;3.33;;;;;;;25.51;58.90;100808.94;5053571;28;20064;-65
2021/07/26 00:25:46;;;;;;;9.82;4.13;;;;;;;25.51;58.86;100809.81;5052534;28;20033;-65
2021/07/26 00:28:13;;;;;;;10.02;3.85;;;;;;;25.53;58.57;100807.03;5053359;28;20037;-65
2021/07/26 00:30:41;;;;;;;12.52;4.05;;;;;;;25.51;58.69;100806.22;5053178;28;20498;-65
2021/07/26 00:33:56;;;;;;;9.98;3.35;;;;;;;25.55;58.58;100814.13;5052872;28;20545;-65
2021/07/26 00:36:24;;;;;;;11.20;3.65;;;;;;;25.41;58.95;100803.03;5050760;28;20045;-65
2021/07/26 00:38:51;;;;;;;10.27;3.33;;;;;;;25.38;58.99;100808.59;5053675;28;20052;-65
2021/07/26 00:41:22;;;;;;;12.50;3.85;;;;;;;25.35;58.85;100804.19;5052319;28;20044;-65
2021/07/26 00:43:49;;;;;;;9.10;3.65;;;;;;;25.31;59.12;100804.41;5053420;28;20097;-65
2021/07/26 00:46:17;;;;;;;7.93;3.30;;;;;;;25.33;58.95;100797.13;5052898;28;20075;-65
2021/07/26 00:48:45;;;;;;;11.48;3.97;;;;;;;25.33;59.16;100807.94;5053011;28;20379;-65
2021/07/26 00:51:13;;;;;;;9.07;3.40;;;;;;;25.37;58.90;100802.31;5052197;28;20052;-65
2021/07/26 00:53:41;;;;;;;10.82;3.15;;;;;;;25.37;59.03;100806.84;5052834;28;20079;-65
2021/07/26 00:56:08;;;;;;;11.05;3.53;;;;;;;25.25;59.01;100802.88;5052207;28;20044;-66
2021/07/26 00:58:37;;;;;;;10.18;3.70;;;;;;;25.30;59.25;100803.53;5052760;28;20041;-65
2021/07/26 01:01:04;;;;;;;10.52;3.60;;;;;;;25.33;58.96;100797.13;5052654;28;20048;-65
2021/07/26 01:03:32;;;;;;;13.20;3.78;;;;;;;25.32;58.71;100796.25;5053140;28;20057;-65
2021/07/26 01:05:59;;;;;;;13.75;4.28;;;;;;;25.32;59.09;100801.66;5051550;28;20040;-65
2021/07/26 01:08:26;;;;;;;14.10;3.60;;;;;;;25.33;58.99;100806.13;5052343;28;20037;-65
2021/07/26 01:10:54;;;;;;;11.68;3.63;;;;;;;25.30;59.11;100814.34;5051598;28;20430;-65
2021/07/26 01:13:24;;;;;;;10.27;3.92;;;;;;;25.28;59.10;100815.34;5053015;28;20052;-65
2021/07/26 01:15:53;;;;;;;9.43;3.72;;;;;;;25.26;59.08;100812.72;5051287;28;20120;-65
2021/07/26 01:18:23;;;;;;;9.50;3.80;;;;;;;25.27;59.21;100806.34;5053104;28;20044;-65
2021/07/26 01:20:53;;;;;;;7.65;3.72;;;;;;;25.28;59.24;100807.25;5052233;28;20045;-64
2021/07/26 01:23:21;;;;;;;7.22;3.25;;;;;;;25.22;59.30;100805.69;5052633;28;20049;-65
2021/07/26 01:25:49;;;;;;;11.80;3.65;;;;;;;25.17;59.29;100801.44;5051388;28;20037;-65
2021/07/26 01:28:18;;;;;;;10.82;4.07;;;;;;;25.19;59.33;100795.03;5051890;28;20410;-65
2021/07/26 01:30:46;;;;;;;9.32;3.90;;;;;;;25.16;59.50;100799.69;5052522;28;20037;-66
2021/07/26 01:33:16;;;;;;;10.50;3.58;;;;;;;25.16;59.47;100803.25;5051778;28;20402;-65
2021/07/26 01:35:43;;;;;;;10.35;3.58;;;;;;;25.21;59.18;100790.41;5052053;28;20119;-65
2021/07/26 01:38:12;;;;;;;8.63;4.13;;;;;;;25.25;59.06;100793.88;5052177;28;20047;-65
2021/07/26 01:40:41;;;;;;;10.80;4.03;;;;;;;25.23;59.19;100791.22;5050907;28;20048;-65
2021/07/26 01:43:10;;;;;;;15.25;4.30;;;;;;;25.18;59.54;100790.56;5051652;28;20040;-65
2021/07/26 01:45:39;;;;;;;9.57;3.72;;;;;;;25.16;59.78;100794.28;5051715;28;20044;-65
2021/07/26 01:48:12;;;;;;;15.95;4.45;;;;;;;25.19;59.08;100788.75;5051632;28;20037;-66
2021/07/26 01:50:45;;;;;;;12.15;3.80;;;;;;;25.20;58.94;100791.38;5051459;28;20045;-65
2021/07/26 01:53:14;;;;;;;9.82;4.00;;;;;;;25.24;59.02;100793.00;5051912;28;20087;-65
2021/07/26 01:55:42;;;;;;;10.15;3.97;;;;;;;25.24;59.10;100787.59;5050717;28;20510;-65
2021/07/26 01:58:09;;;;;;;15.00;3.58;;;;;;;25.23;58.97;100785.81;5051624;28;20033;-65
2021/07/26 02:00:36;;;;;;;9.70;3.35;;;;;;;25.22;59.05;100785.88;5051227;28;20049;-65
2021/07/26 02:03:04;;;;;;;13.23;4.07;;;;;;;25.20;59.07;100791.38;5050902;28;20044;-65
2021/07/26 02:05:31;;;;;;;10.85;3.78;;;;;;;25.22;59.09;100799.41;5051935;28;20041;-65
2021/07/26 02:07:58;;;;;;;10.65;3.95;;;;;;;25.19;59.33;100795.03;5051380;28;20060;-65
2021/07/26 02:10:27;;;;;;;10.10;3.78;;;;;;;25.21;59.48;100790.41;5051119;28;20124;-65
2021/07/26 02:12:58;;;;;;;11.57;3.65;;;;;;;25.22;59.64;100792.19;5051216;28;20426;-65
2021/07/26 02:15:26;;;;;;;14.13;3.42;;;;;;;25.23;59.61;100796.63;5051152;28;20037;-66
2021/07/26 02:17:53;;;;;;;12.77;3.72;;;;;;;25.19;59.92;100805.84;5050930;28;20132;-65
2021/07/26 02:20:21;;;;;;;12.40;3.90;;;;;;;25.19;59.83;100810.38;5050819;28;20044;-65
2021/07/26 02:22:48;;;;;;;9.23;3.60;;;;;;;25.18;60.04;100811.31;5031178;28;20137;-65
2021/07/26 02:25:17;;;;;;;8.23;3.47;;;;;;;25.20;59.94;100818.41;5042666;28;20075;-65
2021/07/26 02:27:47;;;;;;;13.60;3.58;;;;;;;25.20;59.96;100818.41;5051133;28;20037;-65
2021/07/26 02:30:15;;;;;;;11.50;3.72;;;;;;;25.18;60.27;100814.88;5050645;28;20052;-65
2021/07/26 02:32:43;;;;;;;16.17;3.80;;;;;;;25.19;60.09;100815.78;5050205;28;20041;-65
2021/07/26 02:35:12;;;;;;;11.93;3.28;;;;;;;25.17;60.42;100794.22;5049709;28;20040;-65
2021/07/26 02:37:39;;;;;;;13.85;4.95;;;;;;;25.19;60.67;100804.97;5051017;28;20045;-65
2021/07/26 02:40:08;;;;;;;9.07;3.83;;;;;;;25.19;60.94;100813.94;5050525;28;20041;-65
2021/07/26 02:42:35;;;;;;;9.35;3.40;;;;;;;25.17;61.00;100818.53;5050646;28;20376;-65
2021/07/26 02:45:06;;;;;;;9.65;3.60;;;;;;;25.19;61.06;100816.66;5050752;28;20052;-65
2021/07/26 02:47:33;;;;;;;11.68;4.10;;;;;;;25.15;61.29;100820.41;5050523;28;20053;-65
2021/07/26 02:50:00;;;;;;;9.38;3.78;;;;;;;25.15;61.46;100815.00;5051257;28;20502;-65
2021/07/26 02:52:28;;;;;;;8.63;3.90;;;;;;;25.14;61.64;100824.06;5050071;28;20040;-65
2021/07/26 02:54:55;;;;;;;8.05;4.00;;;;;;;25.14;61.63;100820.50;5049705;28;20506;-65
2021/07/26 02:57:22;;;;;;;12.98;3.40;;;;;;;25.15;61.75;100824.94;5049396;28;20048;-65
2021/07/26 02:59:50;;;;;;;12.65;4.05;;;;;;;25.14;61.74;100829.47;5051370;28;20048;-65
2021/07/26 03:02:18;;;;;;;11.73;4.00;;;;;;;25.13;62.08;100816.03;5050629;28;20071;-66
2021/07/26 03:04:45;;;;;;;11.13;3.78;;;;;;;25.13;62.66;100840.38;5050298;28;20463;-65
2021/07/26 03:07:13;;;;;;;10.95;3.55;;;;;;;25.13;62.70;100832.25;5050290;28;20041;-64
2021/07/26 03:09:40;;;;;;;10.57;3.58;;;;;;;25.13;62.69;100826.84;5050300;28;20041;-65
2021/07/26 03:12:08;;;;;;;10.80;3.33;;;;;;;25.15;62.40;100819.53;5050039;28;20045;-65
2021/07/26 03:14:35;;;;;;;11.98;3.90;;;;;;;25.12;62.56;100831.38;5050338;28;20040;-65
2021/07/26 03:17:04;;;;;;;10.43;4.10;;;;;;;25.12;62.38;100836.78;5050060;28;20045;-65
2021/07/26 03:19:34;;;;;;;7.97;4.03;;;;;;;25.12;62.45;100836.78;5049867;28;20032;-65
2021/07/26 03:22:33;;;;;;;9.35;3.70;;;;;;;25.13;62.25;100846.66;5050591;28;20044;-65
2021/07/26 03:25:00;;;;;;;8.10;4.03;;;;;;;25.10;62.05;100840.47;5039532;28;20067;-65
2021/07/26 03:27:28;;;;;;;14.43;3.83;;;;;;;25.09;62.26;100846.81;5049988;28;20037;-65
2021/07/26 03:29:55;;;;;;;13.73;3.78;;;;;;;25.10;62.13;100835.06;5050886;28;20127;-65
2021/07/26 03:32:22;;;;;;;9.52;4.25;;;;;;;25.07;62.14;100849.63;5049583;28;20045;-65
2021/07/26 03:34:51;;;;;;;10.85;3.75;;;;;;;25.09;62.26;100850.41;5050499;28;20045;-65
2021/07/26 03:37:19;;;;;;;13.35;3.88;;;;;;;25.13;62.36;100846.66;5049769;28;20041;-65
2021/07/26 03:39:46;;;;;;;10.65;3.55;;;;;;;25.18;62.35;100851.84;5049345;28;20041;-65
2021/07/26 03:42:13;;;;;;;11.07;3.70;;;;;;;25.23;62.31;100863.31;5050542;28;20044;-65
2021/07/26 03:44:40;;;;;;;9.85;3.80;;;;;;;25.28;62.20;100859.47;5050236;28;20430;-65
2021/07/26 03:47:08;;;;;;;9.55;3.33;;;;;;;25.38;61.99;100857.25;5049694;28;20466;-67
2021/07/26 03:49:35;;;;;;;11.43;3.92;;;;;;;25.42;61.78;100854.34;5049490;28;20037;-66
2021/07/26 03:52:05;;;;;;;14.32;3.85;;;;;;;25.53;61.57;100851.19;5049711;28;20048;-65
2021/07/26 03:54:32;;;;;;;12.07;4.70;;;;;;;25.60;61.44;100857.22;5049050;28;20048;-65
2021/07/26 03:56:59;;;;;;;13.38;3.88;;;;;;;25.67;60.99;100856.84;5050069;28;20495;-65
2021/07/26 03:59:26;;;;;;;8.18;3.67;;;;;;;25.77;60.97;100854.63;5049642;28;20426;-65
2021/07/26 04:01:55;;;;;;;9.63;3.15;;;;;;;25.90;60.61;100855.81;5050197;28;20121;-65
2021/07/26 04:04:23;;;;;;;9.35;3.08;;;;;;;26.01;60.39;100856.19;5049478;28;20033;-65
2021/07/26 04:06:53;;;;;;;9.20;3.22;;;;;;;26.12;60.45;100861.97;5049751;28;20076;-65
2021/07/26 04:09:24;;;;;;;5.20;2.90;;;;;;;26.25;60.03;100870.44;5049658;28;20095;-66
2021/07/26 04:11:58;;;;;;;12.73;3.75;;;;;;;26.39;60.39;100872.47;5049888;28;20498;-65
2021/07/26 04:14:28;;;;;;;11.50;3.70;;;;;;;26.49;59.84;100871.97;5047429;28;20045;-65
2021/07/26 04:16:56;;;;;;;9.70;3.20;;;;;;;26.63;59.59;100879.44;5049706;28;20045;-65
2021/07/26 04:19:23;;;;;;;12.15;3.80;;;;;;;26.75;59.58;100881.53;5049760;28;20052;-65
2021/07/26 04:21:50;;;;;;;9.20;2.90;;;;;;;26.87;59.04;100883.63;5049761;28;20045;-65
2021/07/26 04:24:18;;;;;;;14.73;3.42;;;;;;;27.01;58.51;100872.13;5028976;28;20487;-65
2021/07/26 04:26:47;;;;;;;11.88;3.33;;;;;;;27.16;58.08;100881.31;5044146;28;20051;-65
2021/07/26 04:29:15;;;;;;;10.75;3.38;;;;;;;27.23;57.83;100870.09;5047919;28;20398;-65
2021/07/26 04:31:43;;;;;;;13.38;3.28;;;;;;;27.31;57.85;100880.50;5048589;28;20045;-65
2021/07/26 04:34:11;;;;;;;10.30;3.00;;;;;;;27.40;57.46;100880.03;5049139;28;20409;-65
2021/07/26 04:36:38;;;;;;;8.40;3.40;;;;;;;27.51;57.10;100887.59;5049071;28;20669;-65
2021/07/26 04:39:05;;;;;;;6.07;2.72;;;;;;;27.66;57.19;100885.00;5049191;28;20041;-65
2021/07/26 04:41:34;;;;;;;12.73;3.00;;;;;;;27.91;56.86;100891.81;5048443;28;20506;-66
2021/07/26 04:44:03;;;;;;;9.68;3.38;;;;;;;28.09;55.42;100897.13;5049456;28;20033;-65
2021/07/26 04:46:31;;;;;;;9.77;2.60;;;;;;;28.23;55.56;100893.69;5012212;28;20049;-65
2021/07/26 04:48:58;;;;;;;13.13;2.90;;;;;;;28.38;55.05;100884.69;5009680;28;20065;-65
2021/07/26 04:51:25;;;;;;;13.73;3.22;;;;;;;28.47;54.58;100888.72;5046426;28;20049;-65
2021/07/26 04:53:52;;;;;;;13.57;2.90;;;;;;;28.56;54.63;100893.63;5052365;28;20053;-65
2021/07/26 04:56:19;;;;;;;11.75;2.80;;;;;;;28.68;54.42;100892.06;5052982;28;20056;-66
2021/07/26 04:58:47;;;;;;;16.58;3.80;;;;;;;28.86;53.73;100891.91;5053110;28;20045;-65
2021/07/26 05:01:15;;;;;;;4.40;2.67;;;;;;;29.06;53.48;100890.75;5051570;28;20045;-65
2021/07/26 05:03:43;;;;;;;14.75;4.10;;;;;;;29.23;52.74;100887.00;5052551;28;20044;-65
2021/07/26 05:06:10;;;;;;;11.13;2.85;;;;;;;29.39;52.27;100897.88;5052474;28;20033;-65
2021/07/26 05:08:37;;;;;;;9.90;3.20;;;;;;;29.57;52.16;100885.88;5051629;28;20045;-65
2021/07/26 05:11:05;;;;;;;7.82;3.53;;;;;;;29.75;51.62;100892.91;5038926;28;20045;-65
2021/07/26 05:13:32;;;;;;;9.82;2.95;;;;;;;29.88;51.18;100893.88;5034622;28;20037;-65
2021/07/26 05:15:59;;;;;;;7.22;2.75;;;;;;;30.13;50.88;100895.97;5046112;28;20056;-65
2021/07/26 05:18:28;;;;;;;10.10;3.13;;;;;;;30.37;50.38;100899.00;5047827;28;20045;-65
2021/07/26 05:20:55;;;;;;;12.85;2.72;;;;;;;30.58;50.22;100892.19;5029410;28;20037;-65
2021/07/26 05:23:22;;;;;;;7.45;2.92;;;;;;;30.73;49.73;100893.88;5021529;28;20041;-65
2021/07/26 05:25:50;;;;;;;8.35;2.65;;;;;;;30.85;49.32;100903.97;5013106;28;20400;-65
2021/07/26 05:28:17;;;;;;;7.20;2.83;;;;;;;31.07;48.76;100894.38;5046316;28;20045;-65
2021/07/26 05:30:44;;;;;;;10.38;3.15;;;;;;;31.34;48.02;100899.81;5043860;28;20045;-66
2021/07/26 05:33:12;;;;;;;12.02;2.83;;;;;;;31.54;47.69;100904.78;5046276;28;20045;-65
2021/07/26 05:35:41;;;;;;;11.55;3.05;;;;;;;31.67;46.86;100897.50;5051377;28;20049;-66
2021/07/26 05:38:09;;;;;;;7.85;2.55;;;;;;;31.78;46.46;100897.63;5051520;28;20041;-65
2021/07/26 05:40:36;;;;;;;13.23;2.58;;;;;;;31.98;46.25;100910.75;5049113;28;20041;-66
2021/07/26 05:43:04;;;;;;;7.95;2.67;;;;;;;32.22;45.35;100902.69;5050629;28;20036;-66
2021/07/26 05:45:31;;;;;;;7.47;2.30;;;;;;;32.41;45.32;100913.16;5043805;28;20054;-66
2021/07/26 05:47:58;;;;;;;11.48;2.90;;;;;;;32.61;44.49;100900.75;5051479;28;20049;-64
2021/07/26 05:50:26;;;;;;;7.70;2.88;;;;;;;32.71;44.11;100910.91;5051160;28;20049;-65
2021/07/26 05:52:55;;;;;;;8.15;2.88;;;;;;;32.84;44.33;100911.75;5048961;28;20052;-64
2021/07/26 05:55:22;;;;;;;10.50;2.90;;;;;;;32.97;43.66;100911.69;5050346;28;20041;-65
2021/07/26 05:57:51;;;;;;;8.60;2.40;;;;;;;33.20;43.14;100910.00;5050884;28;20040;-65
2021/07/26 06:00:34;;;;;;;12.02;2.83;;;;;;;33.14;43.23;100921.38;5050669;28;20053;-65
2021/07/26 06:03:02;;;;;;;11.73;2.78;;;;;;;33.28;43.08;100926.69;5051075;28;20037;-65
2021/07/26 06:05:29;;;;;;;6.53;3.17;;;;;;;33.36;42.22;100932.44;5050982;28;21156;-65
2021/07/26 06:07:58;;;;;;;9.50;2.90;;;;;;;33.51;42.33;100931.28;5052047;28;20041;-64
2021/07/26 06:10:25;;;;;;;9.48;2.60;;;;;;;33.55;42.18;100935.50;5050289;28;20052;-65
2021/07/26 06:12:54;;;;;;;8.35;3.00;;;;;;;33.80;41.49;100930.91;5051098;28;20052;-65
2021/07/26 06:15:21;;;;;;;7.82;2.30;;;;;;;33.82;41.03;100932.50;5052334;28;20048;-65
2021/07/26 06:17:49;;;;;;;9.77;2.65;;;;;;;33.97;40.89;100934.06;5051561;28;20049;-65
2021/07/26 06:20:17;;;;;;;11.30;2.70;;;;;;;33.94;41.28;100937.00;5051733;28;20504;-65
2021/07/26 06:22:44;;;;;;;12.70;3.08;;;;;;;33.78;41.18;100938.38;5051726;28;20041;-65
2021/07/26 06:25:14;;;;;;;11.30;2.40;;;;;;;33.84;41.42;100935.13;5032103;28;20057;-65
2021/07/26 06:27:42;;;;;;;8.50;2.97;;;;;;;33.89;41.23;100932.91;5034206;28;20414;-66
2021/07/26 06:30:10;;;;;;;7.05;2.70;;;;;;;33.83;41.59;100926.03;5049112;28;20502;-66
2021/07/26 06:32:37;;;;;;;9.30;2.55;;;;;;;33.87;41.18;100930.28;5031703;28;20041;-65
2021/07/26 06:35:07;;;;;;;10.75;2.60;;;;;;;34.02;41.21;100933.66;5029962;28;20057;-65
2021/07/26 06:37:34;;;;;;;5.90;2.58;;;;;;;34.20;41.54;100939.56;5031248;28;20046;-66
2021/07/26 06:40:02;;;;;;;11.63;2.80;;;;;;;34.17;41.43;100929.72;5031026;28;20048;-65
2021/07/26 06:42:31;;;;;;;8.45;2.78;;;;;;;34.18;41.44;100936.06;5030604;28;20480;-65
2021/07/26 06:44:58;;;;;;;10.25;2.92;;;;;;;34.32;40.60;100938.63;5031123;28;20041;-65
2021/07/26 06:47:26;;;;;;;7.72;2.63;;;;;;;34.28;40.84;100937.09;5031066;28;20046;-65
2021/07/26 06:49:53;;;;;;;10.43;4.00;;;;;;;34.12;40.35;100945.66;5030792;28;20072;-65
2021/07/26 06:52:20;;;;;;;8.80;2.88;;;;;;;34.18;40.16;100938.81;5031863;28;20049;-65
2021/07/26 06:54:47;;;;;;;6.82;3.08;;;;;;;34.20;40.40;100945.06;5030712;28;20045;-66
2021/07/26 06:57:15;;;;;;;6.53;2.47;;;;;;;34.30;40.62;100946.06;5031180;28;20041;-66
2021/07/26 06:59:44;;;;;;;10.65;3.00;;;;;;;34.47;40.29;100950.19;5030981;28;20057;-65
2021/07/26 07:02:11;;;;;;;10.07;3.10;;;;;;;34.63;40.36;100953.44;5030706;28;20030;-65
2021/07/26 07:04:38;;;;;;;9.25;2.58;;;;;;;34.89;40.22;100954.06;5031330;28;20502;-65
2021/07/26 07:07:06;;;;;;;9.55;3.03;;;;;;;35.04;40.05;100955.53;5031079;28;20045;-65
2021/07/26 07:09:33;;;;;;;16.63;3.10;;;;;;;35.04;39.80;100961.91;5030667;28;20041;-66
2021/07/26 07:12:00;;;;;;;6.78;2.65;;;;;;;35.11;39.98;100957.63;5029811;28;20494;-65
2021/07/26 07:14:28;;;;;;;8.93;2.60;;;;;;;35.27;39.66;100968.22;5030530;28;20124;-66
2021/07/26 07:16:58;;;;;;;8.60;2.70;;;;;;;35.33;39.21;100953.97;5030406;28;20044;-65
2021/07/26 07:19:25;;;;;;;10.00;2.88;;;;;;;35.42;38.84;100963.31;5030951;28;20068;-65
2021/07/26 07:21:53;;;;;;;9.45;2.72;;;;;;;35.34;38.13;100957.59;5031052;28;20042;-65
2021/07/26 07:24:20;;;;;;;8.73;2.85;;;;;;;35.20;37.33;100964.19;5050356;28;20482;-66
2021/07/26 07:26:47;;;;;;;6.38;2.47;;;;;;;35.28;37.08;100967.22;5050396;28;20078;-65
2021/07/26 07:29:15;;;;;;;9.15;2.35;;;;;;;35.34;36.90;100963.94;5050772;28;20045;-65
2021/07/26 07:31:42;;;;;;;9.32;2.72;;;;;;;35.33;36.88;100972.31;5049815;28;20439;-65
2021/07/26 07:34:12;;;;;;;7.95;1.98;;;;;;;35.32;37.28;100970.56;5050916;28;20037;-65
2021/07/26 07:36:41;;;;;;;7.35;2.47;;;;;;;35.33;37.46;100970.44;5050844;28;20049;-65
2021/07/26 07:39:08;;;;;;;6.80;2.53;;;;;;;35.43;36.83;100970.53;5050530;28;20094;-65
2021/07/26 07:41:35;;;;;;;7.00;2.50;;;;;;;35.50;36.48;100980.00;5049610;28;20049;-66
2021/07/26 07:44:04;;;;;;;9.63;3.03;;;;;;;35.43;36.36;100971.41;5050354;28;20387;-65
2021/07/26 07:46:32;;;;;;;6.80;2.58;;;;;;;35.35;36.45;100976.69;5050735;28;20049;-65
2021/07/26 07:48:59;;;;;;;8.27;2.78;;;;;;;35.20;36.65;100972.44;5050723;28;20498;-66
2021/07/26 07:51:28;;;;;;;11.85;3.63;;;;;;;35.30;36.50;100956.97;5049786;28;20072;-65
2021/07/26 07:53:56;;;;;;;7.78;2.63;;;;;;;35.37;36.34;100982.94;5050549;28;20041;-65
2021/07/26 07:56:23;;;;;;;5.75;2.45;;;;;;;35.41;35.96;100992.63;5049951;28;20038;-65
2021/07/26 07:58:54;;;;;;;7.30;2.63;;;;;;;35.35;35.99;100993.16;5050717;28;20391;-65
2021/07/26 08:01:30;;;;;;;6.68;2.78;;;;;;;35.42;36.48;101001.75;5050515;28;20053;-66
2021/07/26 08:03:57;;;;;;;8.27;2.90;;;;;;;35.55;36.65;100994.22;5050500;28;20379;-65
2021/07/26 08:06:24;;;;;;;9.73;3.20;;;;;;;35.49;36.61;100997.50;5049598;28;20056;-66
2021/07/26 08:08:53;;;;;;;8.13;2.92;;;;;;;35.47;36.38;100996.75;5050963;28;20036;-66
2021/07/26 08:11:20;;;;;;;8.38;2.50;;;;;;;35.20;36.81;100997.16;5050591;28;20084;-66
2021/07/26 08:13:48;;;;;;;11.85;2.53;;;;;;;34.99;36.99;100998.94;5050352;28;20045;-66
2021/07/26 08:16:15;;;;;;;11.57;3.10;;;;;;;35.05;36.90;100995.72;5048417;28;20059;-65
2021/07/26 08:18:42;;;;;;;9.15;2.55;;;;;;;35.23;36.88;101002.44;5049888;28;20052;-66
2021/07/26 08:21:10;;;;;;;11.57;3.00;;;;;;;35.33;36.96;101003.41;5049903;28;20037;-65
2021/07/26 08:23:37;;;;;;;9.45;3.42;;;;;;;35.35;37.18;100998.66;5051409;28;20045;-65
2021/07/26 08:26:06;;;;;;;6.95;2.58;;;;;;;35.49;36.50;100994.75;5053282;28;20399;-65
2021/07/26 08:28:33;;;;;;;9.23;3.22;;;;;;;35.38;36.80;101000.28;5054407;28;20049;-65
2021/07/26 08:31:01;;;;;;;7.72;2.85;;;;;;;35.70;36.71;100998.44;5054445;28;20041;-66
2021/07/26 08:33:28;;;;;;;11.25;2.95;;;;;;;35.94;36.15;100995.44;5053188;28;20053;-65
2021/07/26 08:35:57;;;;;;;8.98;2.80;;;;;;;36.05;36.10;100998.09;5054037;28;20052;-66
2021/07/26 08:38:24;;;;;;;8.80;3.17;;;;;;;36.19;35.68;101011.56;5054045;28;20049;-66
2021/07/26 08:40:52;;;;;;;8.95;2.90;;;;;;;36.37;35.37;100999.91;5054116;28;20037;-66
2021/07/26 08:43:23;;;;;;;7.78;2.67;;;;;;;36.44;34.80;101001.13;5053305;28;20122;-66
2021/07/26 08:45:50;;;;;;;7.07;2.30;;;;;;;36.39;34.65;100993.28;5033904;28;20042;-65
2021/07/26 08:48:18;;;;;;;12.48;3.30;;;;;;;36.10;34.34;100993.09;5033484;28;20052;-66
2021/07/26 08:50:50;;;;;;;7.18;2.88;;;;;;;36.12;34.33;100993.81;5031954;28;20057;-65
2021/07/26 08:53:21;;;;;;;7.68;2.90;;;;;;;36.16;34.28;100998.06;5032798;28;20045;-66
2021/07/26 08:55:50;;;;;;;9.52;3.30;;;;;;;36.24;34.28;100992.75;5049250;28;20049;-65
2021/07/26 08:58:17;;;;;;;9.63;4.18;;;;;;;36.17;34.79;100982.47;5053086;28;20041;-65
2021/07/26 09:00:46;;;;;;;9.52;2.90;;;;;;;36.32;34.40;100995.72;5034160;28;20037;-66
2021/07/26 09:03:14;;;;;;;10.27;2.65;;;;;;;36.24;33.81;100995.50;5033560;28;20052;-66
2021/07/26 09:05:43;;;;;;;10.02;2.53;;;;;;;36.13;34.04;100991.94;5033267;28;20411;-66
2021/07/26 09:08:10;;;;;;;10.38;3.05;;;;;;;35.93;34.55;100986.31;5030853;28;20045;-65
2021/07/26 09:10:37;;;;;;;11.68;3.10;;;;;;;36.06;34.68;100990.72;5052943;28;20049;-65
2021/07/26 09:13:05;;;;;;;10.13;3.30;;;;;;;36.17;34.65;100979.72;5053229;28;20041;-66
2021/07/26 09:15:35;;;;;;;11.18;3.03;;;;;;;36.29;34.67;100985.00;5040738;28;20041;-67
2021/07/26 09:18:06;;;;;;;8.73;3.10;;;;;;;36.36;34.32;100989.94;5044384;28;20061;-65
2021/07/26 09:20:35;;;;;;;7.40;2.85;;;;;;;36.34;34.59;100993.72;5052907;28;20073;-65
2021/07/26 09:23:12;;;;;;;8.50;3.88;;;;;;;36.25;34.57;100989.00;5035044;28;20830;-66
2021/07/26 09:25:41;;;;;;;10.18;3.28;;;;;;;35.97;35.36;100985.03;5032317;28;20123;-66
2021/07/26 09:28:11;;;;;;;10.23;3.03;;;;;;;36.08;35.04;100995.09;5032382;28;20045;-65
2021/07/26 09:30:40;;;;;;;9.40;3.30;;;;;;;36.00;35.50;100980.28;5032771;28;20041;-66
2021/07/26 09:33:32;;;;;;;8.32;3.13;;;;;;;36.16;35.53;100998.06;5032967;28;20034;-65
2021/07/26 09:36:08;;;;;;;10.60;3.05;;;;;;;36.24;35.01;100995.50;5051501;28;20048;-66
2021/07/26 09:38:35;;;;;;;8.73;2.65;;;;;;;36.25;34.63;100991.75;5052344;28;20424;-66
2021/07/26 09:41:05;;;;;;;8.77;3.30;;;;;;;36.27;34.80;100986.13;5052729;28;20522;-65
2021/07/26 09:43:33;;;;;;;9.68;3.00;;;;;;;36.36;34.65;100992.72;5052069;28;20441;-66
2021/07/26 09:46:00;;;;;;;9.65;2.83;;;;;;;36.45;34.26;101000.13;5035530;28;20054;-64
2021/07/26 09:48:31;;;;;;;11.05;3.63;;;;;;;36.50;33.97;100984.06;5031897;28;20503;-65
2021/07/26 09:51:00;;;;;;;9.77;3.20;;;;;;;36.38;34.13;100999.78;5032230;28;20499;-65
2021/07/26 09:53:29;;;;;;;10.48;3.13;;;;;;;36.42;34.17;101000.41;5032446;28;20052;-65
2021/07/26 09:55:57;;;;;;;12.35;3.75;;;;;;;36.32;34.16;100995.72;5032774;28;20498;-65
2021/07/26 09:58:36;;;;;;;11.60;2.80;;;;;;;36.14;34.31;100999.19;5031993;28;20133;-65
2021/07/26 10:01:04;;;;;;;9.35;3.10;;;;;;;36.12;34.56;101007.56;5032533;28;20557;-66
2021/07/26 10:03:34;;;;;;;8.20;2.92;;;;;;;35.94;34.88;101001.81;5031605;28;20053;-65
2021/07/26 10:06:02;;;;;;;10.73;3.20;;;;;;;35.88;34.89;100996.84;5031732;28;20129;-65
2021/07/26 10:08:29;;;;;;;7.80;2.90;;;;;;;35.73;34.81;100998.16;5031910;28;20042;-65
2021/07/26 10:10:57;;;;;;;7.10;2.70;;;;;;;35.81;34.49;100998.38;5032382;28;20550;-65
2021/07/26 10:13:25;;;;;;;9.23;3.10;;;;;;;35.90;34.26;100989.34;5031684;28;20057;-65
2021/07/26 10:15:53;;;;;;;10.25;3.10;;;;;;;35.80;34.64;100995.75;5032682;28;20045;-66
2021/07/26 10:18:21;;;;;;;10.38;2.92;;;;;;;35.67;34.63;100995.91;5031419;28;20046;-67
2021/07/26 10:20:59;;;;;;;7.65;2.95;;;;;;;35.60;34.79;100999.31;5032269;28;20041;-66
2021/07/26 10:23:35;;;;;;;8.38;3.08;;;;;;;35.52;34.46;101005.44;5051452;28;20052;-66
2021/07/26 10:26:05;;;;;;;8.57;3.58;;;;;;;35.46;34.67;101001.34;5050876;28;20040;-66
2021/07/26 10:28:34;;;;;;;11.65;3.08;;;;;;;35.50;34.66;101002.84;5051459;28;20041;-66
2021/07/26 10:31:01;;;;;;;9.10;3.17;;;;;;;35.56;34.75;101001.47;5051532;28;20029;-65
2021/07/26 10:33:29;;;;;;;7.68;2.83;;;;;;;35.60;34.82;100991.94;5050565;28;20048;-66
2021/07/26 10:35:59;;;;;;;10.02;2.83;;;;;;;35.58;34.84;101001.34;5040159;28;20045;-66
2021/07/26 10:39:02;;;;;;;14.10;4.03;;;;;;;35.56;34.96;101007.81;5049751;28;20041;-66
2021/07/26 10:42:00;;;;;;;8.60;2.83;;;;;;;35.61;35.13;101014.78;5050764;28;20057;-65
2021/07/26 10:44:49;;;;;;;8.52;2.92;;;;;;;35.66;35.03;101013.41;5048015;28;20045;-66
2021/07/26 10:47:20;;;;;;;10.25;3.45;;;;;;;35.73;35.06;101022.03;5049107;28;20498;-66
2021/07/26 10:50:10;;;;;;;13.50;3.80;;;;;;;35.63;35.33;101026.53;5049756;28;20041;-65
2021/07/26 10:53:00;;;;;;;17.58;4.45;;;;;;;35.54;35.41;101020.81;5050913;28;20510;-66
2021/07/26 10:56:06;;;;;;;9.18;3.05;;;;;;;35.40;35.74;101023.84;5046241;28;20049;-66
2021/07/26 10:59:04;;;;;;;10.05;3.92;;;;;;;35.38;36.11;101030.50;5049885;28;20463;-65
2021/07/26 11:01:42;;;;;;;10.15;3.40;;;;;;;35.51;35.61;101021.06;5050432;28;20128;-65
2021/07/26 11:04:42;;;;;;;12.80;3.00;;;;;;;35.42;35.54;101029.22;5050346;28;20056;-65
2021/07/26 11:07:11;;;;;;;14.35;3.38;;;;;;;35.31;36.17;101027.38;5050614;28;20048;-65
2021/07/26 11:09:45;;;;;;;12.73;4.78;;;;;;;35.36;35.70;101021.50;5050386;28;20445;-65
2021/07/26 11:12:14;;;;;;;10.95;3.38;;;;;;;35.56;35.36;101024.31;5049614;28;21261;-66
2021/07/26 11:15:17;;;;;;;10.48;3.63;;;;;;;35.86;35.16;101025.47;5050536;28;20037;-65
2021/07/26 11:18:19;;;;;;;9.25;3.08;;;;;;;36.05;35.14;101020.09;5043619;28;20056;-66
2021/07/26 11:20:57;;;;;;;8.85;3.50;;;;;;;35.93;35.17;101026.69;5050436;28;20407;-65
2021/07/26 11:23:40;;;;;;;11.20;3.70;;;;;;;35.81;35.39;101027.72;5024136;28;20041;-65
2021/07/26 11:26:17;;;;;;;11.70;3.53;;;;;;;35.66;35.82;101026.25;5022804;28;20056;-65
2021/07/26 11:28:45;;;;;;;11.32;3.55;;;;;;;35.83;35.75;101014.75;5029057;28;20132;-65
2021/07/26 11:31:20;;;;;;;11.13;3.58;;;;;;;35.74;35.64;101021.91;5030581;28;20033;-65
2021/07/26 11:33:47;;;;;;;10.10;3.13;;;;;;;35.94;35.13;101023.81;5030850;28;20434;-65